sensor_id;sensor_type;location;lat;lon;timestamp;pressure;altitude;pressure_sealevel;temperature
72675;BMP280;60752;53.962;9.614;2023-03-11T00:03:33;99684.31;;;0.97
72675;BMP280;60752;53.962;9.614;2023-03-11T00:08:54;99707.03;;;1.00
72675;BMP280;60752;53.962;9.614;2023-03-11T00:14:15;99727.28;;;0.96
72675;BMP280;60752;53.962;9.614;2023-03-11T00:19:37;99743.75;;;0.95
72675;BMP280;60752;53.962;9.614;2023-03-11T00:24:58;99751.72;;;0.94
72675;BMP280;60752;53.962;9.614;2023-03-11T00:30:20;99759.19;;;0.95
72675;BMP280;60752;53.962;9.614;2023-03-11T00:35:43;99768.06;;;0.87
72675;BMP280;60752;53.962;9.614;2023-03-11T00:41:04;99773.47;;;0.86
72675;BMP280;60752;53.962;9.614;2023-03-11T00:46:25;99788.97;;;0.79
72675;BMP280;60752;53.962;9.614;2023-03-11T00:51:47;99788.78;;;0.81
72675;BMP280;60752;53.962;9.614;2023-03-11T00:57:07;99789.78;;;0.80
72675;BMP280;60752;53.962;9.614;2023-03-11T01:02:28;99809.56;;;0.79
72675;BMP280;60752;53.962;9.614;2023-03-11T01:07:50;99807.22;;;0.78
72675;BMP280;60752;53.962;9.614;2023-03-11T01:13:11;99820.31;;;0.76
72675;BMP280;60752;53.962;9.614;2023-03-11T01:18:32;99835.41;;;0.73
72675;BMP280;60752;53.962;9.614;2023-03-11T01:23:54;99840.22;;;0.69
72675;BMP280;60752;53.962;9.614;2023-03-11T01:29:14;99836.28;;;0.67
72675;BMP280;60752;53.962;9.614;2023-03-11T01:34:35;99835.75;;;0.65
72675;BMP280;60752;53.962;9.614;2023-03-11T01:39:57;99850.63;;;0.63
72675;BMP280;60752;53.962;9.614;2023-03-11T01:45:34;99853.63;;;0.59
72675;BMP280;60752;53.962;9.614;2023-03-11T01:50:58;99862.22;;;0.53
72675;BMP280;60752;53.962;9.614;2023-03-11T01:56:22;99879.38;;;0.41
72675;BMP280;60752;53.962;9.614;2023-03-11T02:01:47;99875.44;;;0.39
72675;BMP280;60752;53.962;9.614;2023-03-11T02:07:10;99892.13;;;0.36
72675;BMP280;60752;53.962;9.614;2023-03-11T02:12:34;99896.25;;;0.37
72675;BMP280;60752;53.962;9.614;2023-03-11T02:17:56;99908.00;;;0.33
72675;BMP280;60752;53.962;9.614;2023-03-11T02:23:18;99917.22;;;0.22
72675;BMP280;60752;53.962;9.614;2023-03-11T02:28:42;99922.00;;;0.19
72675;BMP280;60752;53.962;9.614;2023-03-11T02:34:04;99935.09;;;0.17
72675;BMP280;60752;53.962;9.614;2023-03-11T02:39:30;99944.78;;;0.15
72675;BMP280;60752;53.962;9.614;2023-03-11T02:44:56;99955.50;;;0.12
72675;BMP280;60752;53.962;9.614;2023-03-11T02:50:18;99957.63;;;0.15
72675;BMP280;60752;53.962;9.614;2023-03-11T02:55:39;99970.66;;;0.20
72675;BMP280;60752;53.962;9.614;2023-03-11T03:01:01;99978.03;;;0.17
72675;BMP280;60752;53.962;9.614;2023-03-11T03:06:22;99974.34;;;0.06
72675;BMP280;60752;53.962;9.614;2023-03-11T03:11:42;99997.34;;;0.01
72675;BMP280;60752;53.962;9.614;2023-03-11T03:17:04;100003.69;;;-0.02
72675;BMP280;60752;53.962;9.614;2023-03-11T03:22:25;99998.75;;;-0.03
72675;BMP280;60752;53.962;9.614;2023-03-11T03:27:46;100009.81;;;-0.03
72675;BMP280;60752;53.962;9.614;2023-03-11T03:33:08;100025.25;;;-0.03
72675;BMP280;60752;53.962;9.614;2023-03-11T03:38:29;100034.16;;;-0.05
72675;BMP280;60752;53.962;9.614;2023-03-11T03:43:49;100042.56;;;-0.16
72675;BMP280;60752;53.962;9.614;2023-03-11T03:49:11;100035.69;;;-0.23
72675;BMP280;60752;53.962;9.614;2023-03-11T03:54:32;100046.19;;;-0.31
72675;BMP280;60752;53.962;9.614;2023-03-11T03:59:53;100051.22;;;-0.42
72675;BMP280;60752;53.962;9.614;2023-03-11T04:05:15;100059.78;;;-0.55
72675;BMP280;60752;53.962;9.614;2023-03-11T04:10:36;100058.47;;;-0.64
72675;BMP280;60752;53.962;9.614;2023-03-11T04:15:56;100072.28;;;-0.65
72675;BMP280;60752;53.962;9.614;2023-03-11T04:21:19;100071.50;;;-0.66
72675;BMP280;60752;53.962;9.614;2023-03-11T04:26:39;100080.16;;;-0.60
72675;BMP280;60752;53.962;9.614;2023-03-11T04:32:00;100085.97;;;-0.71
72675;BMP280;60752;53.962;9.614;2023-03-11T04:37:26;100090.53;;;-0.74
72675;BMP280;60752;53.962;9.614;2023-03-11T04:42:47;100103.63;;;-0.82
72675;BMP280;60752;53.962;9.614;2023-03-11T04:48:08;100118.06;;;-0.87
72675;BMP280;60752;53.962;9.614;2023-03-11T04:53:30;100137.63;;;-0.93
72675;BMP280;60752;53.962;9.614;2023-03-11T04:58:50;100140.59;;;-1.03
72675;BMP280;60752;53.962;9.614;2023-03-11T05:04:11;100151.84;;;-1.04
72675;BMP280;60752;53.962;9.614;2023-03-11T05:09:34;100153.44;;;-1.09
72675;BMP280;60752;53.962;9.614;2023-03-11T05:14:55;100164.88;;;-1.12
72675;BMP280;60752;53.962;9.614;2023-03-11T05:20:17;100162.53;;;-1.20
72675;BMP280;60752;53.962;9.614;2023-03-11T05:25:39;100171.63;;;-1.31
72675;BMP280;60752;53.962;9.614;2023-03-11T05:31:00;100179.69;;;-1.34
72675;BMP280;60752;53.962;9.614;2023-03-11T05:36:21;100187.38;;;-1.40
72675;BMP280;60752;53.962;9.614;2023-03-11T05:41:43;100198.44;;;-1.46
72675;BMP280;60752;53.962;9.614;2023-03-11T05:47:04;100205.72;;;-1.50
72675;BMP280;60752;53.962;9.614;2023-03-11T05:52:24;100215.56;;;-1.47
72675;BMP280;60752;53.962;9.614;2023-03-11T05:57:49;100218.34;;;-1.55
72675;BMP280;60752;53.962;9.614;2023-03-11T06:03:10;100227.59;;;-1.61
72675;BMP280;60752;53.962;9.614;2023-03-11T06:08:31;100224.63;;;-1.64
72675;BMP280;60752;53.962;9.614;2023-03-11T06:13:53;100244.56;;;-1.60
72675;BMP280;60752;53.962;9.614;2023-03-11T06:19:15;100249.31;;;-1.63
72675;BMP280;60752;53.962;9.614;2023-03-11T06:24:35;100251.25;;;-1.65
72675;BMP280;60752;53.962;9.614;2023-03-11T06:29:58;100255.78;;;-1.74
72675;BMP280;60752;53.962;9.614;2023-03-11T06:35:18;100269.41;;;-1.67
72675;BMP280;60752;53.962;9.614;2023-03-11T06:40:39;100276.09;;;-1.66
72675;BMP280;60752;53.962;9.614;2023-03-11T06:46:07;100271.41;;;-1.56
72675;BMP280;60752;53.962;9.614;2023-03-11T06:51:28;100280.69;;;-1.48
72675;BMP280;60752;53.962;9.614;2023-03-11T06:56:48;100287.66;;;-1.29
72675;BMP280;60752;53.962;9.614;2023-03-11T07:02:12;100295.34;;;-0.69
72675;BMP280;60752;53.962;9.614;2023-03-11T07:07:33;100308.00;;;-0.03
72675;BMP280;60752;53.962;9.614;2023-03-11T07:12:53;100323.00;;;0.52
72675;BMP280;60752;53.962;9.614;2023-03-11T07:18:15;100335.09;;;1.01
72675;BMP280;60752;53.962;9.614;2023-03-11T07:23:36;100342.44;;;1.48
72675;BMP280;60752;53.962;9.614;2023-03-11T07:28:57;100346.25;;;1.82
72675;BMP280;60752;53.962;9.614;2023-03-11T07:34:19;100360.88;;;2.18
72675;BMP280;60752;53.962;9.614;2023-03-11T07:39:40;100370.44;;;2.59
72675;BMP280;60752;53.962;9.614;2023-03-11T07:45:01;100372.28;;;2.82
72675;BMP280;60752;53.962;9.614;2023-03-11T07:50:23;100386.28;;;3.16
72675;BMP280;60752;53.962;9.614;2023-03-11T07:55:44;100395.06;;;3.38
72675;BMP280;60752;53.962;9.614;2023-03-11T08:01:06;100403.47;;;3.46
72675;BMP280;60752;53.962;9.614;2023-03-11T08:06:30;100411.56;;;3.61
72675;BMP280;60752;53.962;9.614;2023-03-11T08:11:51;100419.19;;;3.67
72675;BMP280;60752;53.962;9.614;2023-03-11T08:17:12;100421.47;;;3.64
72675;BMP280;60752;53.962;9.614;2023-03-11T08:22:34;100445.28;;;3.78
72675;BMP280;60752;53.962;9.614;2023-03-11T08:27:55;100441.13;;;3.77
72675;BMP280;60752;53.962;9.614;2023-03-11T08:33:16;100452.50;;;3.76
72675;BMP280;60752;53.962;9.614;2023-03-11T08:38:38;100449.31;;;3.85
72675;BMP280;60752;53.962;9.614;2023-03-11T08:43:59;100459.56;;;3.92
72675;BMP280;60752;53.962;9.614;2023-03-11T08:49:19;100464.03;;;3.96
72675;BMP280;60752;53.962;9.614;2023-03-11T08:54:42;100469.09;;;4.03
72675;BMP280;60752;53.962;9.614;2023-03-11T09:00:03;100478.19;;;4.17
72675;BMP280;60752;53.962;9.614;2023-03-11T09:05:24;100480.41;;;4.26
72675;BMP280;60752;53.962;9.614;2023-03-11T09:10:46;100482.91;;;4.49
72675;BMP280;60752;53.962;9.614;2023-03-11T09:16:08;100487.84;;;4.62
72675;BMP280;60752;53.962;9.614;2023-03-11T09:21:30;100494.69;;;4.85
72675;BMP280;60752;53.962;9.614;2023-03-11T09:26:52;100494.97;;;5.00
72675;BMP280;60752;53.962;9.614;2023-03-11T09:32:13;100500.31;;;5.10
72675;BMP280;60752;53.962;9.614;2023-03-11T09:37:34;100509.22;;;5.15
72675;BMP280;60752;53.962;9.614;2023-03-11T09:43:05;100512.88;;;5.35
72675;BMP280;60752;53.962;9.614;2023-03-11T09:48:32;100512.53;;;5.49
72675;BMP280;60752;53.962;9.614;2023-03-11T09:54:00;100510.66;;;5.61
72675;BMP280;60752;53.962;9.614;2023-03-11T09:59:29;100512.28;;;5.84
72675;BMP280;60752;53.962;9.614;2023-03-11T10:04:53;100528.44;;;6.08
72675;BMP280;60752;53.962;9.614;2023-03-11T10:10:16;100530.47;;;6.28
72675;BMP280;60752;53.962;9.614;2023-03-11T10:15:45;100529.22;;;6.57
72675;BMP280;60752;53.962;9.614;2023-03-11T10:21:11;100532.34;;;6.86
72675;BMP280;60752;53.962;9.614;2023-03-11T10:26:36;100529.44;;;7.09
72675;BMP280;60752;53.962;9.614;2023-03-11T10:32:06;100535.31;;;7.32
72675;BMP280;60752;53.962;9.614;2023-03-11T10:37:34;100532.56;;;7.49
72675;BMP280;60752;53.962;9.614;2023-03-11T10:42:59;100530.03;;;7.59
72675;BMP280;60752;53.962;9.614;2023-03-11T10:48:24;100528.38;;;7.42
72675;BMP280;60752;53.962;9.614;2023-03-11T10:53:46;100526.75;;;6.99
72675;BMP280;60752;53.962;9.614;2023-03-11T10:59:22;100515.56;;;6.67
72675;BMP280;60752;53.962;9.614;2023-03-11T11:04:45;100520.66;;;6.35
72675;BMP280;60752;53.962;9.614;2023-03-11T11:10:14;100515.00;;;6.16
72675;BMP280;60752;53.962;9.614;2023-03-11T11:15:50;100516.63;;;6.00
72675;BMP280;60752;53.962;9.614;2023-03-11T11:21:15;100516.50;;;5.90
72675;BMP280;60752;53.962;9.614;2023-03-11T11:26:36;100517.72;;;5.82
72675;BMP280;60752;53.962;9.614;2023-03-11T11:32:14;100508.09;;;5.83
72675;BMP280;60752;53.962;9.614;2023-03-11T11:37:39;100511.75;;;5.65
72675;BMP280;60752;53.962;9.614;2023-03-11T11:43:04;100511.06;;;5.53
72675;BMP280;60752;53.962;9.614;2023-03-11T11:48:28;100510.13;;;5.59
72675;BMP280;60752;53.962;9.614;2023-03-11T11:53:57;100498.69;;;5.60
72675;BMP280;60752;53.962;9.614;2023-03-11T11:59:20;100506.31;;;5.45
72675;BMP280;60752;53.962;9.614;2023-03-11T12:04:47;100500.31;;;5.27
72675;BMP280;60752;53.962;9.614;2023-03-11T12:10:24;100498.34;;;5.34
72675;BMP280;60752;53.962;9.614;2023-03-11T12:15:49;100502.13;;;5.44
72675;BMP280;60752;53.962;9.614;2023-03-11T12:21:19;100492.91;;;5.36
72675;BMP280;60752;53.962;9.614;2023-03-11T12:26:49;100494.03;;;5.40
72675;BMP280;60752;53.962;9.614;2023-03-11T12:32:21;100483.97;;;5.44
72675;BMP280;60752;53.962;9.614;2023-03-11T12:37:42;100492.53;;;5.44
72675;BMP280;60752;53.962;9.614;2023-03-11T12:43:22;100480.97;;;5.35
72675;BMP280;60752;53.962;9.614;2023-03-11T12:48:44;100490.81;;;5.16
72675;BMP280;60752;53.962;9.614;2023-03-11T12:54:27;100491.28;;;5.13
72675;BMP280;60752;53.962;9.614;2023-03-11T13:00:18;100483.72;;;5.12
72675;BMP280;60752;53.962;9.614;2023-03-11T13:05:57;100485.22;;;5.24
72675;BMP280;60752;53.962;9.614;2023-03-11T13:11:37;100491.09;;;5.36
72675;BMP280;60752;53.962;9.614;2023-03-11T13:17:25;100493.56;;;5.26
72675;BMP280;60752;53.962;9.614;2023-03-11T13:23:20;100493.69;;;5.36
72675;BMP280;60752;53.962;9.614;2023-03-11T13:28:55;100492.59;;;5.49
72675;BMP280;60752;53.962;9.614;2023-03-11T13:34:29;100484.25;;;5.47
72675;BMP280;60752;53.962;9.614;2023-03-11T13:40:01;100483.50;;;5.47
72675;BMP280;60752;53.962;9.614;2023-03-11T13:45:27;100494.34;;;5.27
72675;BMP280;60752;53.962;9.614;2023-03-11T13:50:52;100495.59;;;5.24
72675;BMP280;60752;53.962;9.614;2023-03-11T13:56:21;100498.28;;;5.29
72675;BMP280;60752;53.962;9.614;2023-03-11T14:01:50;100486.25;;;5.23
72675;BMP280;60752;53.962;9.614;2023-03-11T14:07:16;100504.06;;;5.20
72675;BMP280;60752;53.962;9.614;2023-03-11T14:12:39;100512.50;;;5.10
72675;BMP280;60752;53.962;9.614;2023-03-11T14:18:24;100513.81;;;4.96
72675;BMP280;60752;53.962;9.614;2023-03-11T14:23:47;100506.44;;;4.88
72675;BMP280;60752;53.962;9.614;2023-03-11T14:29:10;100515.66;;;4.84
72675;BMP280;60752;53.962;9.614;2023-03-11T14:34:39;100514.66;;;4.85
72675;BMP280;60752;53.962;9.614;2023-03-11T14:40:02;100512.47;;;4.93
72675;BMP280;60752;53.962;9.614;2023-03-11T14:45:25;100513.44;;;5.04
72675;BMP280;60752;53.962;9.614;2023-03-11T14:50:48;100518.84;;;5.02
72675;BMP280;60752;53.962;9.614;2023-03-11T14:56:14;100519.66;;;5.03
72675;BMP280;60752;53.962;9.614;2023-03-11T15:01:37;100526.16;;;5.05
72675;BMP280;60752;53.962;9.614;2023-03-11T15:06:59;100516.81;;;5.04
72675;BMP280;60752;53.962;9.614;2023-03-11T15:12:32;100515.84;;;4.94
72675;BMP280;60752;53.962;9.614;2023-03-11T15:17:54;100521.75;;;4.89
72675;BMP280;60752;53.962;9.614;2023-03-11T15:23:20;100510.38;;;4.78
72675;BMP280;60752;53.962;9.614;2023-03-11T15:28:42;100522.06;;;4.64
72675;BMP280;60752;53.962;9.614;2023-03-11T15:34:20;100520.75;;;4.50
72675;BMP280;60752;53.962;9.614;2023-03-11T15:39:46;100514.69;;;4.44
72675;BMP280;60752;53.962;9.614;2023-03-11T15:45:14;100527.09;;;4.42
72675;BMP280;60752;53.962;9.614;2023-03-11T15:50:35;100519.34;;;4.42
72675;BMP280;60752;53.962;9.614;2023-03-11T15:55:57;100520.59;;;4.40
72675;BMP280;60752;53.962;9.614;2023-03-11T16:01:21;100528.66;;;4.43
72675;BMP280;60752;53.962;9.614;2023-03-11T16:06:47;100523.97;;;4.40
72675;BMP280;60752;53.962;9.614;2023-03-11T16:12:13;100531.63;;;4.35
72675;BMP280;60752;53.962;9.614;2023-03-11T16:17:41;100525.31;;;4.31
72675;BMP280;60752;53.962;9.614;2023-03-11T16:23:02;100523.22;;;4.28
72675;BMP280;60752;53.962;9.614;2023-03-11T16:28:25;100529.50;;;4.20
72675;BMP280;60752;53.962;9.614;2023-03-11T16:33:50;100532.31;;;4.19
72675;BMP280;60752;53.962;9.614;2023-03-11T16:39:12;100538.53;;;4.06
72675;BMP280;60752;53.962;9.614;2023-03-11T16:44:33;100547.31;;;4.05
72675;BMP280;60752;53.962;9.614;2023-03-11T16:49:58;100547.63;;;3.97
72675;BMP280;60752;53.962;9.614;2023-03-11T16:55:21;100548.41;;;3.97
72675;BMP280;60752;53.962;9.614;2023-03-11T17:00:43;100551.25;;;3.96
72675;BMP280;60752;53.962;9.614;2023-03-11T17:06:09;100551.59;;;3.88
72675;BMP280;60752;53.962;9.614;2023-03-11T17:11:30;100565.84;;;3.79
72675;BMP280;60752;53.962;9.614;2023-03-11T17:16:51;100564.41;;;3.71
72675;BMP280;60752;53.962;9.614;2023-03-11T17:22:15;100575.06;;;3.63
72675;BMP280;60752;53.962;9.614;2023-03-11T17:27:36;100578.88;;;3.60
72675;BMP280;60752;53.962;9.614;2023-03-11T17:33:03;100587.88;;;3.58
72675;BMP280;60752;53.962;9.614;2023-03-11T17:38:35;100585.31;;;3.58
72675;BMP280;60752;53.962;9.614;2023-03-11T17:43:58;100580.47;;;3.61
72675;BMP280;60752;53.962;9.614;2023-03-11T17:49:18;100589.59;;;3.64
72675;BMP280;60752;53.962;9.614;2023-03-11T17:54:50;100611.06;;;3.64
72675;BMP280;60752;53.962;9.614;2023-03-11T18:00:13;100608.34;;;3.59
72675;BMP280;60752;53.962;9.614;2023-03-11T18:05:34;100607.09;;;3.50
72675;BMP280;60752;53.962;9.614;2023-03-11T18:10:59;100610.94;;;3.48
72675;BMP280;60752;53.962;9.614;2023-03-11T18:16:22;100611.50;;;3.50
72675;BMP280;60752;53.962;9.614;2023-03-11T18:21:45;100612.38;;;3.44
72675;BMP280;60752;53.962;9.614;2023-03-11T18:27:22;100615.41;;;3.41
72675;BMP280;60752;53.962;9.614;2023-03-11T18:32:46;100617.41;;;3.38
72675;BMP280;60752;53.962;9.614;2023-03-11T18:38:08;100611.91;;;3.35
72675;BMP280;60752;53.962;9.614;2023-03-11T18:43:30;100617.88;;;3.35
72675;BMP280;60752;53.962;9.614;2023-03-11T18:48:53;100618.66;;;3.36
72675;BMP280;60752;53.962;9.614;2023-03-11T18:54:16;100617.88;;;3.35
72675;BMP280;60752;53.962;9.614;2023-03-11T18:59:38;100628.00;;;3.37
72675;BMP280;60752;53.962;9.614;2023-03-11T19:05:00;100629.78;;;3.36
72675;BMP280;60752;53.962;9.614;2023-03-11T19:10:23;100638.56;;;3.35
72675;BMP280;60752;53.962;9.614;2023-03-11T19:15:46;100652.47;;;3.34
72675;BMP280;60752;53.962;9.614;2023-03-11T19:21:10;100668.78;;;3.35
72675;BMP280;60752;53.962;9.614;2023-03-11T19:26:33;100667.00;;;3.17
72675;BMP280;60752;53.962;9.614;2023-03-11T19:31:57;100672.16;;;2.99
72675;BMP280;60752;53.962;9.614;2023-03-11T19:37:18;100674.53;;;2.82
72675;BMP280;60752;53.962;9.614;2023-03-11T19:42:39;100686.19;;;2.73
72675;BMP280;60752;53.962;9.614;2023-03-11T19:48:03;100680.00;;;2.74
72675;BMP280;60752;53.962;9.614;2023-03-11T19:53:24;100685.72;;;2.76
72675;BMP280;60752;53.962;9.614;2023-03-11T19:58:46;100694.22;;;2.83
72675;BMP280;60752;53.962;9.614;2023-03-11T20:04:11;100698.38;;;2.84
72675;BMP280;60752;53.962;9.614;2023-03-11T20:09:32;100702.38;;;2.80
72675;BMP280;60752;53.962;9.614;2023-03-11T20:14:54;100706.53;;;2.81
72675;BMP280;60752;53.962;9.614;2023-03-11T20:20:16;100707.69;;;2.85
72675;BMP280;60752;53.962;9.614;2023-03-11T20:25:43;100715.66;;;2.83
72675;BMP280;60752;53.962;9.614;2023-03-11T20:31:18;100709.72;;;2.83
72675;BMP280;60752;53.962;9.614;2023-03-11T20:36:41;100712.50;;;2.81
72675;BMP280;60752;53.962;9.614;2023-03-11T20:42:03;100729.38;;;2.84
72675;BMP280;60752;53.962;9.614;2023-03-11T20:47:26;100731.22;;;2.77
72675;BMP280;60752;53.962;9.614;2023-03-11T20:52:50;100737.38;;;2.76
72675;BMP280;60752;53.962;9.614;2023-03-11T20:58:11;100736.66;;;2.69
72675;BMP280;60752;53.962;9.614;2023-03-11T21:03:33;100733.91;;;2.64
72675;BMP280;60752;53.962;9.614;2023-03-11T21:08:58;100733.19;;;2.57
72675;BMP280;60752;53.962;9.614;2023-03-11T21:14:20;100734.03;;;2.50
72675;BMP280;60752;53.962;9.614;2023-03-11T21:19:42;100731.69;;;2.49
72675;BMP280;60752;53.962;9.614;2023-03-11T21:25:08;100735.69;;;2.45
72675;BMP280;60752;53.962;9.614;2023-03-11T21:30:29;100731.50;;;2.44
72675;BMP280;60752;53.962;9.614;2023-03-11T21:35:51;100737.47;;;2.44
72675;BMP280;60752;53.962;9.614;2023-03-11T21:41:17;100744.25;;;2.39
72675;BMP280;60752;53.962;9.614;2023-03-11T21:46:40;100744.81;;;2.41
72675;BMP280;60752;53.962;9.614;2023-03-11T21:52:01;100735.88;;;2.43
72675;BMP280;60752;53.962;9.614;2023-03-11T21:57:25;100739.84;;;2.46
72675;BMP280;60752;53.962;9.614;2023-03-11T22:02:48;100743.41;;;2.45
72675;BMP280;60752;53.962;9.614;2023-03-11T22:08:09;100745.00;;;2.46
72675;BMP280;60752;53.962;9.614;2023-03-11T22:13:35;100748.84;;;2.37
72675;BMP280;60752;53.962;9.614;2023-03-11T22:18:55;100748.84;;;2.30
72675;BMP280;60752;53.962;9.614;2023-03-11T22:24:16;100749.72;;;2.24
72675;BMP280;60752;53.962;9.614;2023-03-11T22:29:42;100753.13;;;2.18
72675;BMP280;60752;53.962;9.614;2023-03-11T22:35:03;100758.13;;;2.06
72675;BMP280;60752;53.962;9.614;2023-03-11T22:40:24;100764.53;;;1.97
72675;BMP280;60752;53.962;9.614;2023-03-11T22:45:46;100761.84;;;1.85
72675;BMP280;60752;53.962;9.614;2023-03-11T22:51:07;100771.56;;;1.83
72675;BMP280;60752;53.962;9.614;2023-03-11T22:56:28;100773.56;;;1.81
72675;BMP280;60752;53.962;9.614;2023-03-11T23:01:50;100782.28;;;1.80
72675;BMP280;60752;53.962;9.614;2023-03-11T23:07:11;100792.81;;;1.79
72675;BMP280;60752;53.962;9.614;2023-03-11T23:12:33;100794.41;;;1.80
72675;BMP280;60752;53.962;9.614;2023-03-11T23:17:55;100788.63;;;1.78
72675;BMP280;60752;53.962;9.614;2023-03-11T23:23:16;100802.50;;;1.83
72675;BMP280;60752;53.962;9.614;2023-03-11T23:28:37;100800.09;;;1.88
72675;BMP280;60752;53.962;9.614;2023-03-11T23:33:59;100805.09;;;1.90
72675;BMP280;60752;53.962;9.614;2023-03-11T23:39:19;100816.38;;;1.89
72675;BMP280;60752;53.962;9.614;2023-03-11T23:44:40;100832.19;;;1.99
72675;BMP280;60752;53.962;9.614;2023-03-11T23:50:03;100837.94;;;2.01
72675;BMP280;60752;53.962;9.614;2023-03-11T23:55:24;100830.63;;;1.98
